Time;durP1;ratioP1;P1;durP2;ratioP2;P2;SDS_P1;SDS_P2;PMS_P1;PMS_P2;Temp;Humidity;BMP_temperature;BMP_pressure;BME280_temperature;BME280_humidity;BME280_pressure;Samples;Min_cycle;Max_cycle;Signal;HPM_P1;HPM_P2
2022/03/12 00:00:48;;;;;;;20.60;8.18;;;3.10;58.20;;;;;;5025883;28;20026;-74
2022/03/12 00:03:15;;;;;;;22.92;8.25;;;3.00;58.30;;;;;;5024098;28;20045;-76
2022/03/12 00:05:52;;;;;;;20.90;6.80;;;2.90;58.20;;;;;;5027554;28;20040;-71
2022/03/12 00:08:22;;;;;;;18.33;7.03;;;2.90;58.40;;;;;;5016113;28;20029;-75
2022/03/12 00:10:51;;;;;;;19.88;7.60;;;2.90;58.30;;;;;;5013051;28;20036;-76
2022/03/12 00:13:20;;;;;;;22.52;7.18;;;2.90;58.30;;;;;;5017019;28;20029;-72
2022/03/12 00:15:47;;;;;;;18.65;7.45;;;2.90;58.20;;;;;;5025717;28;20059;-76
2022/03/12 00:18:18;;;;;;;22.42;7.15;;;2.90;58.30;;;;;;5014979;28;20033;-69
2022/03/12 00:20:48;;;;;;;19.50;8.15;;;2.90;58.40;;;;;;5019120;28;20025;-69
2022/03/12 00:23:25;;;;;;;17.23;6.93;;;2.90;58.40;;;;;;5022064;28;20034;-72
2022/03/12 00:25:52;;;;;;;21.27;7.10;;;2.90;58.50;;;;;;5030546;28;20057;-70
2022/03/12 00:28:19;;;;;;;15.43;6.90;;;2.80;58.40;;;;;;5009482;28;20109;-68
2022/03/12 00:30:50;;;;;;;17.58;6.50;;;2.80;58.70;;;;;;5018717;28;20204;-69
2022/03/12 00:33:21;;;;;;;20.15;7.63;;;2.80;58.60;;;;;;5027608;28;20084;-70
2022/03/12 00:35:50;;;;;;;17.95;7.70;;;2.80;58.90;;;;;;5023856;28;20033;-75
2022/03/12 00:38:17;;;;;;;18.00;7.50;;;2.70;59.00;;;;;;5027409;28;20056;-71
2022/03/12 00:40:43;;;;;;;19.95;7.82;;;2.70;59.20;;;;;;5011619;28;20025;-69
2022/03/12 00:43:10;;;;;;;18.13;7.18;;;2.70;59.50;;;;;;5016511;28;20092;-70
2022/03/12 00:45:37;;;;;;;23.15;7.68;;;2.70;59.40;;;;;;5011226;28;20030;-70
2022/03/12 00:48:04;;;;;;;24.60;8.40;;;2.70;59.40;;;;;;5018896;28;20033;-68
2022/03/12 00:50:29;;;;;;;21.90;7.03;;;2.70;59.30;;;;;;5025027;28;20026;-75
2022/03/12 00:52:55;;;;;;;17.83;6.97;;;2.70;59.40;;;;;;5012626;28;20053;-69
2022/03/12 00:55:21;;;;;;;16.58;7.03;;;2.60;59.40;;;;;;5018646;28;20041;-69
2022/03/12 00:57:46;;;;;;;20.55;7.82;;;2.60;59.60;;;;;;5018299;28;20034;-69
2022/03/12 01:00:16;;;;;;;18.27;7.72;;;2.60;59.70;;;;;;5024495;28;20045;-70
2022/03/12 01:02:42;;;;;;;20.48;7.50;;;2.50;59.70;;;;;;5022452;28;20104;-71
2022/03/12 01:05:08;;;;;;;17.73;7.55;;;2.50;60.00;;;;;;5011844;28;20527;-67
2022/03/12 01:07:34;;;;;;;20.80;7.55;;;2.40;60.20;;;;;;5008062;28;20121;-67
2022/03/12 01:09:59;;;;;;;15.55;6.95;;;2.40;60.70;;;;;;5014076;28;20456;-74
2022/03/12 01:12:25;;;;;;;17.33;7.25;;;2.40;60.20;;;;;;5023217;28;20030;-70
2022/03/12 01:14:51;;;;;;;20.77;7.18;;;2.40;60.40;;;;;;5015234;28;20037;-75
2022/03/12 01:17:17;;;;;;;16.92;7.18;;;2.40;60.30;;;;;;5012218;28;20036;-70
2022/03/12 01:19:43;;;;;;;16.85;7.43;;;2.30;60.70;;;;;;5025801;28;20455;-69
2022/03/12 01:22:18;;;;;;;19.02;8.07;;;2.40;60.70;;;;;;5019449;28;20037;-73
2022/03/12 01:24:43;;;;;;;20.13;7.88;;;2.30;60.90;;;;;;5015036;28;20096;-69
2022/03/12 01:27:09;;;;;;;19.67;7.75;;;2.30;61.30;;;;;;5006296;28;20030;-70
2022/03/12 01:29:35;;;;;;;19.92;7.90;;;2.20;61.80;;;;;;5019804;28;20388;-70
2022/03/12 01:32:00;;;;;;;17.52;7.43;;;2.20;61.80;;;;;;5007707;28;20117;-69
2022/03/12 01:34:26;;;;;;;19.30;7.65;;;2.20;61.90;;;;;;5016720;28;20472;-71
2022/03/12 01:36:51;;;;;;;19.10;7.63;;;2.20;62.20;;;;;;5019986;28;20030;-75
2022/03/12 01:39:17;;;;;;;19.98;7.53;;;2.20;62.80;;;;;;5022476;28;20084;-70
2022/03/12 01:41:43;;;;;;;19.38;7.15;;;2.10;61.70;;;;;;5022191;28;20113;-69
2022/03/12 01:44:12;;;;;;;17.85;6.75;;;2.10;62.00;;;;;;5024769;28;20117;-69
2022/03/12 01:46:42;;;;;;;18.17;7.40;;;2.10;62.70;;;;;;5023246;28;20083;-67
2022/03/12 01:49:10;;;;;;;20.58;7.53;;;2.10;62.60;;;;;;5021614;28;20060;-70
2022/03/12 01:51:38;;;;;;;19.42;7.32;;;2.10;62.50;;;;;;5017467;28;20064;-69
2022/03/12 01:54:04;;;;;;;23.40;7.70;;;2.00;62.80;;;;;;5027249;28;20025;-68
2022/03/12 01:56:30;;;;;;;19.60;7.60;;;2.00;63.20;;;;;;5023490;28;20456;-68
2022/03/12 01:59:01;;;;;;;19.23;7.30;;;2.00;63.40;;;;;;5012992;28;20034;-70
2022/03/12 02:01:28;;;;;;;18.63;7.47;;;2.00;63.40;;;;;;5014104;28;20034;-72
2022/03/12 02:03:56;;;;;;;18.30;7.20;;;2.00;63.50;;;;;;5010388;28;20045;-75
2022/03/12 02:06:22;;;;;;;22.75;8.00;;;2.00;63.70;;;;;;5010056;28;20040;-71
2022/03/12 02:08:58;;;;;;;17.33;7.00;;;2.00;63.50;;;;;;5023730;28;20025;-69
2022/03/12 02:11:28;;;;;;;18.13;7.43;;;1.90;63.70;;;;;;5011815;28;20029;-68
2022/03/12 02:14:15;;;;;;;20.80;7.63;;;2.00;64.00;;;;;;5025497;28;20060;-75
2022/03/12 02:16:53;;;;;;;21.73;7.70;;;1.90;64.00;;;;;;5004764;28;20037;-67
2022/03/12 02:19:20;;;;;;;17.38;6.80;;;1.90;64.40;;;;;;5024042;28;20087;-71
2022/03/12 02:22:17;;;;;;;26.17;7.88;;;1.90;63.90;;;;;;5021973;28;20079;-69
2022/03/12 02:24:43;;;;;;;19.90;7.78;;;1.90;64.10;;;;;;5022331;28;20037;-69
2022/03/12 02:27:10;;;;;;;18.13;7.07;;;1.90;64.20;;;;;;5022219;28;20028;-69
2022/03/12 02:29:37;;;;;;;18.23;6.85;;;1.90;64.20;;;;;;5031001;28;20068;-70
2022/03/12 02:32:06;;;;;;;19.92;7.68;;;1.80;64.40;;;;;;5018034;28;20515;-69
2022/03/12 02:34:46;;;;;;;23.83;7.77;;;1.80;64.60;;;;;;5028323;28;20034;-70
2022/03/12 02:37:13;;;;;;;18.48;7.15;;;1.70;64.60;;;;;;5028125;28;20111;-74
2022/03/12 02:39:40;;;;;;;17.92;7.28;;;1.70;64.90;;;;;;4997423;28;20022;-70
2022/03/12 02:42:07;;;;;;;19.48;7.13;;;1.70;65.20;;;;;;5010740;28;20710;-69
2022/03/12 02:44:34;;;;;;;19.58;7.35;;;1.70;65.20;;;;;;5025636;28;20028;-69
2022/03/12 02:47:22;;;;;;;19.42;7.82;;;1.70;65.40;;;;;;5021074;28;20022;-67
2022/03/12 02:49:53;;;;;;;17.58;7.43;;;1.70;65.60;;;;;;5023797;28;20113;-70
2022/03/12 02:52:21;;;;;;;22.00;8.23;;;1.60;65.60;;;;;;5017381;28;20034;-70
2022/03/12 02:54:49;;;;;;;21.77;7.25;;;1.70;65.70;;;;;;5022118;28;20026;-69
2022/03/12 02:57:16;;;;;;;19.70;7.63;;;1.60;65.60;;;;;;5011328;28;20124;-68
2022/03/12 02:59:44;;;;;;;20.88;7.72;;;1.60;65.60;;;;;;5006605;28;20037;-71
2022/03/12 03:02:12;;;;;;;20.15;7.78;;;1.60;65.90;;;;;;5019896;28;20141;-71
2022/03/12 03:04:40;;;;;;;17.95;7.13;;;1.60;65.80;;;;;;5021153;28;20116;-69
2022/03/12 03:07:10;;;;;;;27.27;7.82;;;1.60;66.00;;;;;;5029527;28;20135;-69
2022/03/12 03:09:37;;;;;;;20.67;8.23;;;1.50;66.20;;;;;;5024900;28;20392;-70
2022/03/12 03:12:08;;;;;;;19.60;7.00;;;1.50;66.50;;;;;;5019132;28;20041;-69
2022/03/12 03:14:37;;;;;;;19.70;7.30;;;1.50;66.70;;;;;;5023919;28;20026;-68
2022/03/12 03:17:05;;;;;;;18.33;7.03;;;1.50;66.90;;;;;;5013156;28;20040;-69
2022/03/12 03:19:31;;;;;;;18.70;7.32;;;1.50;67.00;;;;;;5012280;28;20026;-70
2022/03/12 03:21:58;;;;;;;18.77;6.75;;;1.50;66.70;;;;;;5016736;28;20557;-75
2022/03/12 03:24:25;;;;;;;17.92;6.88;;;1.50;66.50;;;;;;5026438;28;20391;-69
2022/03/12 03:26:56;;;;;;;18.05;7.55;;;1.50;66.60;;;;;;5030365;28;20032;-70
2022/03/12 03:29:23;;;;;;;19.33;7.35;;;1.60;66.40;;;;;;5026204;28;20087;-69
2022/03/12 03:31:49;;;;;;;15.05;6.60;;;1.60;65.90;;;;;;5016898;28;20037;-70
2022/03/12 03:34:16;;;;;;;18.55;7.45;;;1.60;65.80;;;;;;5012084;28;20049;-70
2022/03/12 03:36:42;;;;;;;17.95;6.55;;;1.60;65.50;;;;;;5011111;28;20030;-69
2022/03/12 03:39:08;;;;;;;19.13;6.70;;;1.60;65.90;;;;;;5015225;28;20490;-69
2022/03/12 03:41:33;;;;;;;16.20;7.70;;;1.60;66.00;;;;;;5019090;28;20444;-69
2022/03/12 03:44:00;;;;;;;21.23;7.05;;;1.60;65.90;;;;;;5020426;28;20034;-76
2022/03/12 03:46:26;;;;;;;18.80;7.07;;;1.60;65.80;;;;;;5011415;28;20032;-69
2022/03/12 03:48:53;;;;;;;20.42;7.38;;;1.50;66.00;;;;;;5026749;28;20357;-69
2022/03/12 03:51:20;;;;;;;18.13;7.65;;;1.60;66.00;;;;;;5029596;28;20606;-72
2022/03/12 03:53:47;;;;;;;16.55;6.72;;;1.60;66.30;;;;;;5014587;28;20037;-69
2022/03/12 03:56:13;;;;;;;17.77;6.80;;;1.60;66.10;;;;;;5024295;28;20033;-67
2022/03/12 03:58:39;;;;;;;18.90;7.40;;;1.60;66.10;;;;;;5019669;28;20052;-72
2022/03/12 04:01:12;;;;;;;15.80;6.95;;;1.50;65.80;;;;;;5020063;28;20562;-69
2022/03/12 04:03:41;;;;;;;24.17;7.55;;;1.60;66.30;;;;;;5022962;28;20092;-69
2022/03/12 04:06:07;;;;;;;21.70;6.82;;;1.50;66.60;;;;;;5017984;28;20079;-68
2022/03/12 04:08:34;;;;;;;18.00;7.10;;;1.50;66.40;;;;;;5008762;28;20034;-69
2022/03/12 04:11:04;;;;;;;18.52;7.03;;;1.50;66.60;;;;;;5011012;28;20097;-75
2022/03/12 04:13:31;;;;;;;18.05;7.03;;;1.50;66.70;;;;;;5024864;28;20037;-70
2022/03/12 04:16:02;;;;;;;17.52;6.68;;;1.50;66.80;;;;;;5020840;28;20046;-69
2022/03/12 04:18:28;;;;;;;12.10;4.97;;;1.50;66.70;;;;;;5021012;28;20077;-70
2022/03/12 04:20:54;;;;;;;16.98;7.15;;;1.50;66.70;;;;;;5016397;28;20026;-69
2022/03/12 04:23:23;;;;;;;17.92;6.90;;;1.50;67.20;;;;;;5010920;28;20073;-69
2022/03/12 04:25:51;;;;;;;22.17;7.75;;;1.50;67.80;;;;;;5024050;28;20037;-71
2022/03/12 04:28:18;;;;;;;17.63;6.85;;;1.50;67.20;;;;;;5024506;28;20063;-72
2022/03/12 04:30:45;;;;;;;17.13;6.53;;;1.60;67.20;;;;;;5006861;28;20037;-68
2022/03/12 04:33:12;;;;;;;20.48;7.43;;;1.60;66.70;;;;;;5015553;28;20038;-70
2022/03/12 04:35:44;;;;;;;22.23;7.50;;;1.60;67.10;;;;;;5028679;28;20063;-68
2022/03/12 04:38:11;;;;;;;22.55;7.03;;;1.60;67.20;;;;;;5019887;28;20030;-69
2022/03/12 04:40:43;;;;;;;18.02;7.05;;;1.60;67.60;;;;;;5008627;28;20034;-67
2022/03/12 04:43:11;;;;;;;18.88;7.18;;;1.60;66.90;;;;;;5010135;28;20540;-70
2022/03/12 04:45:37;;;;;;;15.68;6.68;;;1.60;66.70;;;;;;5013852;28;20068;-69
2022/03/12 04:48:04;;;;;;;20.50;7.40;;;1.60;66.70;;;;;;5021667;28;20469;-75
2022/03/12 04:50:30;;;;;;;19.15;7.68;;;1.60;67.00;;;;;;5023642;28;20058;-69
2022/03/12 04:53:01;;;;;;;18.35;6.90;;;1.60;67.30;;;;;;5015810;28;20116;-69
2022/03/12 04:55:29;;;;;;;19.23;7.10;;;1.60;67.80;;;;;;5020989;28;20037;-70
2022/03/12 04:57:56;;;;;;;17.73;6.80;;;1.50;68.10;;;;;;5014552;28;20484;-71
2022/03/12 05:00:27;;;;;;;18.50;7.13;;;1.50;68.60;;;;;;5017269;28;20034;-72
2022/03/12 05:03:01;;;;;;;16.52;6.47;;;1.60;68.60;;;;;;5023806;28;20060;-68
2022/03/12 05:05:27;;;;;;;15.07;6.40;;;1.60;68.70;;;;;;5025399;28;20072;-70
2022/03/12 05:07:57;;;;;;;17.25;6.78;;;1.50;68.90;;;;;;5027799;28;20057;-68
2022/03/12 05:10:26;;;;;;;15.23;7.00;;;1.50;68.70;;;;;;5024992;28;20647;-70
2022/03/12 05:12:54;;;;;;;15.07;6.75;;;1.50;69.30;;;;;;5027453;28;20056;-70
2022/03/12 05:15:20;;;;;;;15.05;6.55;;;1.50;69.50;;;;;;5017900;28;20108;-70
2022/03/12 05:17:48;;;;;;;18.55;7.18;;;1.60;69.60;;;;;;5015306;28;20768;-69
2022/03/12 05:20:23;;;;;;;18.38;7.03;;;1.50;69.50;;;;;;5020470;28;20022;-69
2022/03/12 05:22:50;;;;;;;17.45;6.85;;;1.50;69.60;;;;;;4991966;28;20035;-71
2022/03/12 05:25:18;;;;;;;18.70;7.07;;;1.40;70.00;;;;;;5021202;28;20034;-69
2022/03/12 05:27:48;;;;;;;15.45;7.00;;;1.40;70.10;;;;;;5009058;28;20029;-69
2022/03/12 05:30:14;;;;;;;18.83;7.32;;;1.40;70.70;;;;;;5008477;28;20072;-72
2022/03/12 05:32:40;;;;;;;17.77;7.05;;;1.40;70.90;;;;;;5016212;28;20124;-70
2022/03/12 05:35:07;;;;;;;21.95;7.20;;;1.50;71.30;;;;;;5018821;28;20124;-76
2022/03/12 05:37:33;;;;;;;18.95;7.30;;;1.50;71.60;;;;;;5008124;28;20025;-69
2022/03/12 05:39:58;;;;;;;18.38;7.45;;;1.40;71.70;;;;;;5014467;28;20083;-72
2022/03/12 05:42:25;;;;;;;21.90;7.28;;;1.40;72.10;;;;;;5026977;28;20162;-69
2022/03/12 05:44:51;;;;;;;19.15;7.70;;;1.40;72.50;;;;;;5022604;28;20048;-69
2022/03/12 05:47:20;;;;;;;20.38;7.38;;;1.40;72.40;;;;;;5017613;28;20484;-69
2022/03/12 05:49:46;;;;;;;21.42;7.80;;;1.40;72.10;;;;;;5013553;28;20108;-70
2022/03/12 05:52:14;;;;;;;18.98;7.47;;;1.40;72.10;;;;;;5008048;28;20121;-70
2022/03/12 05:54:39;;;;;;;18.08;8.00;;;1.40;72.10;;;;;;5012963;28;20151;-69
2022/03/12 05:57:05;;;;;;;24.30;7.93;;;1.50;72.10;;;;;;5029200;28;20050;-76
2022/03/12 05:59:32;;;;;;;20.98;7.72;;;1.50;72.20;;;;;;5020972;28;20069;-69
2022/03/12 06:01:57;;;;;;;21.58;7.55;;;1.40;72.00;;;;;;5011839;28;20054;-68
2022/03/12 06:04:26;;;;;;;22.70;8.50;;;1.50;72.20;;;;;;5020263;28;20541;-69
2022/03/12 06:06:56;;;;;;;20.50;8.20;;;1.50;72.20;;;;;;5023162;28;20414;-69
2022/03/12 06:09:22;;;;;;;19.55;7.05;;;1.50;72.10;;;;;;5027405;28;20480;-72
2022/03/12 06:11:52;;;;;;;22.67;7.07;;;1.50;72.20;;;;;;5019020;28;20033;-69
2022/03/12 06:14:18;;;;;;;21.38;8.32;;;1.50;72.10;;;;;;5011986;28;20475;-69
2022/03/12 06:16:48;;;;;;;21.50;8.68;;;1.50;72.50;;;;;;5027836;28;20040;-69
2022/03/12 06:19:16;;;;;;;20.50;7.53;;;1.50;72.80;;;;;;5019925;28;20174;-69
2022/03/12 06:21:42;;;;;;;23.15;8.23;;;1.60;72.90;;;;;;5027799;28;20037;-72
2022/03/12 06:24:08;;;;;;;18.77;7.65;;;1.60;72.80;;;;;;5019490;28;20017;-75
2022/03/12 06:26:35;;;;;;;22.30;9.00;;;1.60;72.70;;;;;;5021223;28;20041;-67
2022/03/12 06:29:03;;;;;;;25.08;9.18;;;1.70;72.20;;;;;;5015220;28;20132;-71
2022/03/12 06:31:31;;;;;;;23.52;7.43;;;1.70;72.10;;;;;;5010933;28;20086;-71
2022/03/12 06:33:58;;;;;;;20.23;7.85;;;1.70;72.20;;;;;;5014880;28;20403;-68
2022/03/12 06:36:26;;;;;;;21.35;7.07;;;1.70;71.90;;;;;;5015457;28;20030;-68
2022/03/12 06:38:52;;;;;;;18.38;7.70;;;1.70;71.80;;;;;;5023620;28;20125;-70
2022/03/12 06:41:20;;;;;;;24.75;8.05;;;1.90;72.20;;;;;;5012493;28;20041;-69
2022/03/12 06:43:47;;;;;;;20.73;7.63;;;1.90;72.10;;;;;;5012724;28;20037;-69
2022/03/12 06:46:15;;;;;;;22.20;8.68;;;2.00;71.60;;;;;;5011447;28;20026;-74
2022/03/12 06:48:42;;;;;;;18.02;7.63;;;2.00;71.30;;;;;;5022283;28;20037;-69
2022/03/12 06:51:12;;;;;;;20.67;7.40;;;2.10;71.10;;;;;;5022895;28;20515;-75
2022/03/12 06:53:38;;;;;;;21.15;7.65;;;2.20;70.70;;;;;;5012096;28;20034;-68
2022/03/12 06:56:04;;;;;;;22.20;7.95;;;2.30;70.50;;;;;;5024206;28;20582;-69
2022/03/12 06:58:30;;;;;;;18.90;7.45;;;2.50;70.70;;;;;;5016462;28;20033;-72
2022/03/12 07:00:57;;;;;;;21.52;7.57;;;2.50;69.80;;;;;;5011328;28;20037;-69
2022/03/12 07:03:23;;;;;;;21.50;7.60;;;2.60;70.20;;;;;;5017340;28;20054;-68
2022/03/12 07:05:50;;;;;;;22.33;8.30;;;2.70;70.30;;;;;;5010049;28;20045;-70
2022/03/12 07:08:15;;;;;;;22.00;8.23;;;2.80;69.70;;;;;;5010822;28;20125;-69
2022/03/12 07:10:41;;;;;;;24.45;8.60;;;2.90;69.10;;;;;;5011312;28;20176;-70
2022/03/12 07:13:07;;;;;;;21.10;8.40;;;3.00;68.50;;;;;;5009241;28;20037;-69
2022/03/12 07:15:33;;;;;;;18.90;8.30;;;3.10;68.30;;;;;;5011020;28;20814;-68
2022/03/12 07:17:59;;;;;;;20.38;7.32;;;3.00;67.40;;;;;;5014473;28;20064;-71
2022/03/12 07:20:24;;;;;;;20.75;8.50;;;3.10;67.90;;;;;;5010500;28;20053;-70
2022/03/12 07:22:50;;;;;;;22.95;8.98;;;3.10;68.10;;;;;;5009874;28;20487;-70
2022/03/12 07:25:16;;;;;;;22.15;8.68;;;3.10;66.90;;;;;;5009669;28;20102;-68
2022/03/12 07:27:42;;;;;;;18.88;7.72;;;3.10;67.30;;;;;;5010566;28;20069;-70
2022/03/12 07:30:12;;;;;;;20.40;8.27;;;3.00;67.10;;;;;;5010193;28;20274;-69
2022/03/12 07:32:39;;;;;;;20.13;8.25;;;3.20;67.60;;;;;;5007725;28;20089;-71
2022/03/12 07:35:05;;;;;;;20.67;8.25;;;3.30;66.60;;;;;;5010729;28;20030;-71
2022/03/12 07:37:32;;;;;;;23.48;8.50;;;3.40;66.00;;;;;;5019179;28;20104;-73
2022/03/12 07:39:58;;;;;;;21.50;8.77;;;3.50;66.60;;;;;;5013423;28;20034;-70
2022/03/12 07:42:23;;;;;;;23.23;8.65;;;3.70;65.80;;;;;;5009969;28;20042;-71
2022/03/12 07:44:49;;;;;;;20.77;8.57;;;3.80;64.30;;;;;;5010539;28;20022;-73
2022/03/12 07:47:15;;;;;;;21.45;8.65;;;3.80;64.90;;;;;;5010288;28;20472;-75
2022/03/12 07:49:41;;;;;;;20.27;8.68;;;3.90;64.70;;;;;;5010428;28;20030;-71
2022/03/12 07:52:08;;;;;;;19.20;8.20;;;3.90;64.10;;;;;;5011324;28;20453;-70
2022/03/12 07:54:34;;;;;;;20.75;8.63;;;4.00;63.70;;;;;;5015830;28;20255;-71
2022/03/12 07:57:01;;;;;;;21.30;8.00;;;4.10;63.50;;;;;;5015886;28;20026;-70
2022/03/12 07:59:29;;;;;;;24.85;8.48;;;4.20;64.40;;;;;;5011433;28;20034;-73
2022/03/12 08:01:55;;;;;;;20.13;9.23;;;4.40;63.00;;;;;;5015510;28;20081;-71
2022/03/12 08:04:21;;;;;;;20.35;9.02;;;4.50;63.60;;;;;;5006234;28;20038;-71
2022/03/12 08:06:48;;;;;;;21.25;8.93;;;4.60;62.00;;;;;;5011607;28;20076;-71
2022/03/12 08:09:14;;;;;;;23.88;8.70;;;4.60;61.80;;;;;;5009252;28;20026;-76
2022/03/12 08:11:39;;;;;;;26.17;8.75;;;4.60;61.60;;;;;;5009702;28;20595;-70
2022/03/12 08:14:08;;;;;;;26.77;9.52;;;4.70;61.40;;;;;;5009605;28;20036;-71
2022/03/12 08:16:36;;;;;;;23.98;9.10;;;4.80;61.20;;;;;;5009034;28;20076;-70
2022/03/12 08:19:04;;;;;;;21.02;8.48;;;4.70;62.10;;;;;;5010122;28;20032;-72
2022/03/12 08:21:30;;;;;;;22.80;8.82;;;4.80;60.90;;;;;;5011698;28;20040;-72
2022/03/12 08:23:56;;;;;;;21.40;8.07;;;5.00;61.50;;;;;;5010396;28;20030;-71
2022/03/12 08:26:22;;;;;;;24.77;8.98;;;5.20;61.70;;;;;;5008396;28;20460;-72
2022/03/12 08:28:47;;;;;;;21.88;8.55;;;5.30;60.60;;;;;;5008933;28;20034;-72
2022/03/12 08:31:14;;;;;;;24.33;10.02;;;5.30;60.10;;;;;;5009408;28;20087;-67
2022/03/12 08:33:40;;;;;;;24.48;9.10;;;5.40;60.80;;;;;;5009470;28;20026;-67
2022/03/12 08:36:06;;;;;;;21.17;8.90;;;5.50;59.60;;;;;;5010020;28;20049;-68
2022/03/12 08:38:34;;;;;;;19.38;8.52;;;5.50;60.50;;;;;;5008376;28;20030;-68
2022/03/12 08:41:01;;;;;;;23.65;9.43;;;5.70;60.10;;;;;;5009992;28;20029;-67
2022/03/12 08:43:26;;;;;;;25.30;9.52;;;5.80;59.30;;;;;;5009135;28;20033;-68
2022/03/12 08:45:52;;;;;;;24.52;9.95;;;5.90;59.10;;;;;;5009439;28;20129;-67
2022/03/12 08:48:18;;;;;;;20.55;8.52;;;5.90;59.60;;;;;;5009905;28;20030;-72
2022/03/12 08:50:45;;;;;;;25.38;9.30;;;6.10;58.70;;;;;;5009068;28;20026;-65
2022/03/12 08:53:11;;;;;;;30.15;11.13;;;6.20;59.00;;;;;;5009345;28;20126;-68
2022/03/12 08:55:38;;;;;;;29.33;9.95;;;6.40;58.70;;;;;;5009202;28;20115;-69
2022/03/12 08:58:05;;;;;;;31.48;9.75;;;6.50;57.90;;;;;;5008322;28;20025;-67
2022/03/12 09:00:31;;;;;;;29.65;9.68;;;6.50;57.60;;;;;;5009044;28;20064;-67
2022/03/12 09:02:58;;;;;;;25.20;10.15;;;6.60;57.50;;;;;;5008148;28;20046;-67
2022/03/12 09:05:25;;;;;;;23.92;10.40;;;6.60;57.50;;;;;;4989456;28;20043;-67
2022/03/12 09:07:52;;;;;;;20.63;9.50;;;6.80;58.00;;;;;;5000372;28;20518;-68
2022/03/12 09:10:20;;;;;;;22.15;9.77;;;7.00;57.10;;;;;;5009202;28;20136;-70
2022/03/12 09:12:45;;;;;;;26.00;9.55;;;6.70;57.30;;;;;;5040610;28;20056;-69
2022/03/12 09:15:12;;;;;;;29.48;9.70;;;6.80;57.80;;;;;;5008240;28;20551;-69
2022/03/12 09:17:38;;;;;;;26.25;9.70;;;7.00;57.20;;;;;;5008410;28;20676;-66
2022/03/12 09:20:05;;;;;;;26.88;9.80;;;6.90;57.10;;;;;;5009365;28;20030;-67
2022/03/12 09:22:31;;;;;;;27.80;9.88;;;7.10;57.90;;;;;;5007153;28;20620;-70
2022/03/12 09:24:57;;;;;;;22.13;9.50;;;7.30;56.90;;;;;;5007779;28;20036;-67
2022/03/12 09:27:23;;;;;;;22.83;9.38;;;7.40;57.40;;;;;;5009903;28;20036;-67
2022/03/12 09:29:49;;;;;;;21.98;9.40;;;7.50;56.30;;;;;;5011986;28;20041;-70
2022/03/12 09:32:14;;;;;;;24.25;10.15;;;7.60;56.50;;;;;;5006786;28;20050;-68
2022/03/12 09:34:40;;;;;;;22.38;9.65;;;7.70;56.20;;;;;;5007572;28;20705;-70
2022/03/12 09:37:08;;;;;;;24.50;10.48;;;8.10;56.10;;;;;;5011173;28;20779;-68
2022/03/12 09:39:34;;;;;;;27.85;9.98;;;8.30;55.60;;;;;;5012871;28;20062;-68
2022/03/12 09:42:00;;;;;;;24.92;9.77;;;8.40;54.20;;;;;;5013385;28;20428;-68
2022/03/12 09:44:26;;;;;;;26.42;10.25;;;8.40;54.20;;;;;;5010909;28;20048;-70
2022/03/12 09:46:52;;;;;;;24.83;10.38;;;8.50;53.70;;;;;;5017840;28;20049;-70
2022/03/12 09:49:18;;;;;;;29.00;10.70;;;8.60;53.50;;;;;;5012725;28;20056;-70
2022/03/12 09:51:44;;;;;;;26.25;11.25;;;8.80;54.70;;;;;;5011725;28;20524;-67
2022/03/12 09:54:11;;;;;;;24.17;11.23;;;8.80;53.30;;;;;;5011905;28;20105;-68
2022/03/12 09:56:38;;;;;;;23.80;11.15;;;8.90;54.10;;;;;;5011450;28;20030;-68
2022/03/12 09:59:05;;;;;;;28.27;10.75;;;9.10;52.90;;;;;;5012316;28;20468;-69
2022/03/12 10:01:32;;;;;;;25.38;10.45;;;9.00;53.50;;;;;;5012535;28;20527;-69
2022/03/12 10:03:58;;;;;;;26.85;10.52;;;9.20;53.60;;;;;;5012417;28;20076;-70
2022/03/12 10:06:24;;;;;;;25.15;10.75;;;9.40;53.00;;;;;;5014389;28;20034;-71
2022/03/12 10:08:50;;;;;;;23.00;10.32;;;9.40;52.20;;;;;;5012722;28;20040;-69
2022/03/12 10:11:18;;;;;;;25.60;11.23;;;9.30;52.10;;;;;;5010057;28;20064;-72
2022/03/12 10:13:44;;;;;;;26.77;11.02;;;9.50;53.40;;;;;;5011280;28;20022;-70
2022/03/12 10:16:11;;;;;;;27.60;11.30;;;9.80;54.30;;;;;;5010598;28;20026;-67
2022/03/12 10:18:36;;;;;;;23.42;10.63;;;9.90;51.80;;;;;;5010034;28;20037;-70
2022/03/12 10:21:03;;;;;;;25.83;11.73;;;10.10;51.80;;;;;;5014953;28;20502;-66
2022/03/12 10:23:29;;;;;;;25.50;10.98;;;10.20;52.30;;;;;;5011355;28;20056;-66
2022/03/12 10:25:54;;;;;;;24.10;10.90;;;10.40;52.30;;;;;;5021162;28;20535;-65
2022/03/12 10:28:20;;;;;;;26.52;10.82;;;10.70;51.80;;;;;;5009981;28;20041;-66
2022/03/12 10:30:46;;;;;;;26.63;11.20;;;10.80;50.70;;;;;;5010493;28;20073;-68
2022/03/12 10:33:24;;;;;;;27.48;11.93;;;10.90;51.90;;;;;;5018999;28;20388;-66
2022/03/12 10:35:50;;;;;;;26.88;11.80;;;10.80;50.90;;;;;;5015265;28;20034;-68
2022/03/12 10:38:17;;;;;;;35.35;14.65;;;10.80;50.80;;;;;;5012709;28;20065;-68
2022/03/12 10:40:45;;;;;;;26.60;12.20;;;11.00;53.20;;;;;;5009792;28;20103;-65
2022/03/12 10:43:13;;;;;;;25.08;12.30;;;11.20;51.50;;;;;;5014400;28;20483;-65
2022/03/12 10:45:43;;;;;;;24.20;11.23;;;11.20;50.80;;;;;;5010072;28;20062;-68
2022/03/12 10:48:10;;;;;;;25.40;12.30;;;11.30;51.20;;;;;;5011545;28;20048;-70
2022/03/12 10:50:40;;;;;;;24.48;10.93;;;11.30;51.20;;;;;;5009837;28;20034;-66
2022/03/12 10:53:07;;;;;;;28.73;11.85;;;11.60;51.30;;;;;;5010009;28;20104;-66
2022/03/12 10:55:36;;;;;;;26.00;12.40;;;11.80;50.60;;;;;;5009367;28;20061;-66
2022/03/12 10:58:16;;;;;;;27.70;12.30;;;11.90;51.40;;;;;;5010661;28;20113;-66
2022/03/12 11:01:02;;;;;;;24.38;11.27;;;11.90;49.60;;;;;;5011411;28;20022;-68
2022/03/12 11:03:33;;;;;;;33.33;12.23;;;12.00;50.50;;;;;;5010270;28;20053;-67
2022/03/12 11:06:00;;;;;;;26.15;11.18;;;12.20;50.40;;;;;;5010992;28;20420;-68
2022/03/12 11:08:28;;;;;;;23.40;11.60;;;11.90;49.60;;;;;;5010510;28;20026;-72
2022/03/12 11:11:01;;;;;;;26.50;11.35;;;11.70;49.80;;;;;;5009841;28;20029;-66
2022/03/12 11:13:52;;;;;;;24.13;11.63;;;11.80;50.40;;;;;;5022842;28;20041;-72
2022/03/12 11:16:21;;;;;;;26.92;11.93;;;11.90;49.10;;;;;;5017073;28;20041;-67
2022/03/12 11:18:53;;;;;;;24.80;11.95;;;12.20;50.60;;;;;;5016753;28;20120;-68
2022/03/12 11:21:27;;;;;;;27.38;11.57;;;12.50;49.60;;;;;;5013207;28;20018;-67
2022/03/12 11:23:54;;;;;;;24.50;11.73;;;12.50;49.10;;;;;;5027819;28;20056;-65
2022/03/12 11:26:20;;;;;;;28.33;12.27;;;12.60;49.70;;;;;;5020901;28;20037;-67
2022/03/12 11:28:58;;;;;;;26.50;12.43;;;12.60;49.10;;;;;;5010727;28;20057;-66
2022/03/12 11:31:50;;;;;;;26.77;11.70;;;12.30;49.40;;;;;;5012745;28;20096;-67
2022/03/12 11:34:23;;;;;;;26.95;11.02;;;12.40;50.70;;;;;;5006615;28;20045;-67
2022/03/12 11:36:55;;;;;;;25.00;11.80;;;12.80;50.30;;;;;;4996402;28;20124;-67
2022/03/12 11:39:30;;;;;;;27.83;12.70;;;12.70;49.30;;;;;;5021209;28;20041;-66
2022/03/12 11:42:17;;;;;;;29.15;12.35;;;12.40;49.60;;;;;;5019511;28;20129;-67
2022/03/12 11:44:46;;;;;;;26.05;11.80;;;12.30;51.20;;;;;;4991142;28;20088;-67
2022/03/12 11:47:17;;;;;;;27.25;12.43;;;12.50;51.50;;;;;;5014527;28;20099;-68
2022/03/12 11:49:44;;;;;;;32.47;12.77;;;12.70;50.50;;;;;;5010069;28;20018;-66
2022/03/12 11:52:10;;;;;;;30.55;12.73;;;12.80;50.00;;;;;;5014016;28;20084;-70
2022/03/12 11:54:43;;;;;;;25.60;12.00;;;12.80;50.10;;;;;;5010464;28;20029;-66
2022/03/12 11:57:19;;;;;;;26.77;12.32;;;12.60;50.80;;;;;;5019715;28;20028;-68
2022/03/12 11:59:45;;;;;;;30.30;11.90;;;13.20;51.50;;;;;;5016791;28;20538;-67
2022/03/12 12:02:20;;;;;;;23.17;11.50;;;13.20;50.00;;;;;;5025903;28;20057;-66
2022/03/12 12:04:46;;;;;;;26.67;12.20;;;13.00;51.50;;;;;;5027322;28;20490;-67
2022/03/12 12:07:12;;;;;;;29.20;12.20;;;13.20;49.80;;;;;;5010921;28;20037;-67
2022/03/12 12:09:38;;;;;;;24.60;11.07;;;13.10;50.10;;;;;;5014879;28;20035;-67
2022/03/12 12:12:13;;;;;;;29.35;12.70;;;13.30;50.50;;;;;;5005869;28;20038;-67
2022/03/12 12:14:43;;;;;;;26.80;12.23;;;13.50;49.90;;;;;;5009222;28;20018;-67
2022/03/12 12:17:10;;;;;;;23.02;11.23;;;13.40;50.20;;;;;;5009402;28;20026;-68
2022/03/12 12:19:36;;;;;;;25.48;9.95;;;13.30;50.60;;;;;;5009802;28;20141;-69
2022/03/12 12:22:03;;;;;;;22.60;10.30;;;13.40;50.70;;;;;;5009702;28;20112;-70
2022/03/12 12:24:31;;;;;;;26.27;10.65;;;13.50;51.70;;;;;;4998974;28;20026;-72
2022/03/12 12:27:08;;;;;;;25.38;11.40;;;13.50;51.20;;;;;;5010400;28;20084;-68
2022/03/12 12:29:41;;;;;;;23.10;10.45;;;13.80;50.80;;;;;;5007777;28;20087;-67
2022/03/12 12:32:08;;;;;;;26.75;10.60;;;13.80;51.10;;;;;;5009376;28;20400;-69
2022/03/12 12:34:37;;;;;;;22.17;10.18;;;13.30;51.80;;;;;;5008141;28;20034;-68
2022/03/12 12:37:04;;;;;;;22.60;9.82;;;13.60;52.60;;;;;;5010553;28;20034;-68
2022/03/12 12:39:31;;;;;;;21.67;11.00;;;14.10;53.60;;;;;;5009515;28;20576;-70
2022/03/12 12:42:01;;;;;;;19.58;9.85;;;14.10;51.20;;;;;;5009642;28;20036;-69
2022/03/12 12:44:42;;;;;;;20.10;10.18;;;14.00;51.60;;;;;;5008543;28;20133;-67
2022/03/12 12:47:10;;;;;;;22.65;10.90;;;14.10;51.50;;;;;;5009559;28;20148;-66